Mountain Park, North Carolina
Current Conditions -  °F | °C
As of 6:55 AM on Wednesday 28 Jan 2015 (Local Time) from KUKF Reporting Station
Clear Clear  
Wind Chill: 27°   Ceiling: Unl
Heat Index: 27°   Visibility: 10mi
Dew Point: 14°   Wind: 0mph
Humidity: 59%   Direction: NA
Pressure: 30.2"   Gusts: NA
Location:  36.3943°N, 80.8906°W
Report Text: KUKF 281155Z AUTO 00000KT 10SM CLR M03/M10 A3020 RMK AO2
Loading
Personal Weather Stations






























Interactive Weather Map New forecast layout! Learn more

10-Day Weather Forecast

Advertisements
Track Severe Weather on mobile